KBNL/BNL METAR and TAF weather

Enter ICAO airport designator
Station Type Date Time Source
KBNL METAR 2018/01/22 20:15 UTC NOAA

KBNL 222015Z AUTO 15010KT 10SM 22/16 A3004 RMK AO2


Station Type Date Time Source
KBNL Decoded METAR 2018/01/22 20:15 UTC NOAA

Station name not available
Jan 22, 2018 - 03:15 PM EST / 2018.01.22 2015 UTC
Wind: from the SSE (150 degrees) at 12 MPH (10 KT):0
Visibility: 10 mile(s):0
Temperature: 71 F (22 C)
Dew Point: 60 F (16 C)
Relative Humidity: 68%
Pressure (altimeter): 30.04 in. Hg (1017 hPa)
ob: KBNL 222015Z AUTO 15010KT 10SM 22/16 A3004 RMK AO2
cycle: 20

Station Type Date Time Source
KBNL TAF UTC NOAA

Error!


Example: see airport list